createdAt,value
2019-02-20T00:00:39.879Z,353.30
2019-02-20T00:03:10.993Z,306.37
2019-02-20T00:05:42.888Z,318.60
2019-02-20T00:08:14.346Z,435.67
2019-02-20T00:10:45.475Z,341.37
2019-02-20T00:13:16.981Z,302.47
2019-02-20T00:15:48.116Z,298.23
2019-02-20T00:18:19.252Z,418.33
2019-02-20T00:20:50.990Z,849.03
2019-02-20T00:23:22.956Z,461.03
2019-02-20T00:25:55.861Z,286.87
2019-02-20T00:28:26.946Z,428.67
2019-02-20T00:30:59.170Z,376.20
2019-02-20T00:33:31.604Z,340.70
2019-02-20T00:36:04.521Z,577.27
2019-02-20T00:38:35.829Z,353.17
2019-02-20T00:41:07.020Z,330.90
2019-02-20T00:43:42.164Z,377.07
2019-02-20T00:46:25.365Z,382.07
2019-02-20T00:49:10.481Z,293.30
2019-02-20T00:51:51.865Z,476.07
2019-02-20T00:54:23.336Z,331.27
2019-02-20T00:56:54.833Z,406.97
2019-02-20T00:59:30.275Z,302.93
2019-02-20T01:02:01.449Z,442.60
2019-02-20T01:04:32.570Z,423.73
2019-02-20T01:07:04.707Z,317.70
2019-02-20T01:09:35.790Z,307.83
2019-02-20T01:12:06.970Z,370.43
2019-02-20T01:14:38.208Z,329.43
2019-02-20T01:17:09.300Z,399.80
2019-02-20T01:19:40.393Z,317.97
2019-02-20T01:22:11.943Z,377.03
2019-02-20T01:24:43.031Z,326.03
2019-02-20T01:27:14.140Z,306.70
2019-02-20T01:29:47.687Z,372.03
2019-02-20T01:32:18.933Z,385.80
2019-02-20T01:34:50.978Z,315.20
2019-02-20T01:37:22.586Z,372.20
2019-02-20T01:39:53.684Z,398.27
2019-02-20T01:42:26.219Z,355.63
2019-02-20T01:44:57.355Z,344.50
2019-02-20T01:47:28.956Z,450.73
2019-02-20T01:50:01.095Z,392.10
2019-02-20T01:52:33.860Z,345.60
2019-02-20T01:55:05.538Z,376.77
2019-02-20T01:57:36.622Z,370.53
2019-02-20T02:00:09.240Z,374.13
2019-02-20T02:02:42.585Z,304.77
2019-02-20T02:05:15.866Z,315.03
2019-02-20T02:07:47.126Z,319.77
2019-02-20T02:10:18.268Z,312.87
2019-02-20T02:12:50.673Z,518.93
2019-02-20T02:15:22.138Z,327.87
2019-02-20T02:17:53.245Z,434.90
2019-02-20T02:20:24.378Z,556.30
2019-02-20T02:22:55.693Z,316.90
2019-02-20T02:25:27.168Z,342.73
2019-02-20T02:27:58.256Z,306.97
2019-02-20T02:30:30.380Z,308.37
2019-02-20T02:33:01.768Z,310.27
2019-02-20T02:35:33.545Z,300.00
2019-02-20T02:38:05.138Z,298.43
2019-02-20T02:40:36.290Z,304.47
2019-02-20T02:43:07.836Z,331.23
2019-02-20T02:45:39.347Z,326.20
2019-02-20T02:48:12.418Z,221.20
2019-02-20T02:50:44.862Z,128.57
2019-02-20T02:53:15.980Z,199.60
2019-02-20T02:55:47.148Z,168.60
2019-02-20T02:58:18.266Z,145.00
2019-02-20T03:00:49.416Z,188.07
2019-02-20T03:03:20.505Z,164.77
2019-02-20T03:05:52.634Z,183.43
2019-02-20T03:08:24.129Z,182.50
2019-02-20T03:10:55.582Z,187.40
2019-02-20T03:13:26.660Z,374.63
2019-02-20T03:15:57.832Z,354.27
2019-02-20T03:18:29.133Z,357.77
2019-02-20T03:21:01.106Z,358.83
2019-02-20T03:23:40.161Z,350.90
2019-02-20T03:26:11.825Z,352.30
2019-02-20T03:28:44.076Z,342.87
2019-02-20T03:31:15.209Z,358.97
2019-02-20T03:33:46.328Z,345.57
2019-02-20T03:36:17.431Z,372.17
2019-02-20T03:38:49.600Z,347.13
2019-02-20T03:41:20.759Z,345.93
2019-02-20T03:43:51.850Z,361.57
2019-02-20T03:46:22.976Z,344.07
2019-02-20T03:48:54.129Z,321.53
2019-02-20T03:51:25.280Z,305.93
2019-02-20T03:53:56.525Z,315.67
2019-02-20T03:56:27.946Z,312.97
2019-02-20T03:59:00.073Z,301.70
2019-02-20T04:01:31.489Z,379.37
2019-02-20T04:04:03.666Z,298.43
2019-02-20T04:06:34.795Z,279.03
2019-02-20T04:09:07.138Z,259.50
2019-02-20T04:11:38.319Z,256.63
2019-02-20T04:14:09.394Z,239.23
2019-02-20T04:16:40.617Z,243.10
2019-02-20T04:19:13.491Z,228.93
2019-02-20T04:21:45.456Z,266.77
2019-02-20T04:24:16.535Z,197.07
2019-02-20T04:26:47.678Z,210.30
2019-02-20T04:29:18.771Z,208.60
2019-02-20T04:31:49.941Z,181.30
2019-02-20T04:34:21.046Z,218.17
2019-02-20T04:36:52.210Z,218.57
2019-02-20T04:39:23.284Z,194.63
2019-02-20T04:41:54.416Z,186.47
2019-02-20T04:44:25.745Z,170.87
2019-02-20T04:46:56.880Z,186.93
2019-02-20T04:49:28.895Z,313.83
2019-02-20T04:52:01.269Z,196.50
2019-02-20T04:54:32.359Z,176.30
2019-02-20T04:57:03.491Z,172.60
2019-02-20T04:59:35.904Z,174.90
2019-02-20T05:02:07.053Z,182.13
2019-02-20T05:04:39.184Z,164.30
2019-02-20T05:07:10.285Z,190.63
2019-02-20T05:09:41.734Z,191.30
2019-02-20T05:12:12.951Z,206.37
2019-02-20T05:14:44.168Z,171.20
2019-02-20T05:17:15.254Z,208.03
2019-02-20T05:19:47.775Z,200.63
2019-02-20T05:22:18.871Z,180.90
2019-02-20T05:24:51.031Z,220.03
2019-02-20T05:27:23.122Z,178.47
2019-02-20T05:29:54.295Z,186.13
2019-02-20T05:32:25.556Z,155.10
2019-02-20T05:34:56.744Z,163.73
2019-02-20T05:37:27.838Z,139.60
2019-02-20T05:39:58.937Z,152.33
2019-02-20T05:42:31.224Z,145.20
2019-02-20T05:45:02.785Z,149.13
2019-02-20T05:47:33.926Z,154.90
2019-02-20T05:50:05.153Z,150.40
2019-02-20T05:52:37.753Z,140.77
2019-02-20T05:55:09.230Z,154.13
2019-02-20T05:57:40.314Z,143.27
2019-02-20T06:00:13.170Z,150.17
2019-02-20T06:02:46.467Z,148.37
2019-02-20T06:05:17.589Z,147.40
2019-02-20T06:07:49.755Z,153.33
2019-02-20T06:10:20.950Z,158.67
2019-02-20T06:12:52.082Z,139.30
2019-02-20T06:15:23.269Z,138.37
2019-02-20T06:17:55.308Z,136.40
2019-02-20T06:20:26.466Z,129.10
2019-02-20T06:22:58.990Z,142.03
2019-02-20T06:25:30.747Z,147.87
2019-02-20T06:28:01.913Z,145.53
2019-02-20T06:30:33.014Z,153.80
2019-02-20T06:33:05.229Z,151.43
2019-02-20T06:35:37.289Z,158.37
2019-02-20T06:38:11.000Z,155.53
2019-02-20T06:40:42.269Z,165.67
2019-02-20T06:43:13.514Z,155.57
2019-02-20T06:45:45.392Z,157.43
2019-02-20T06:48:16.866Z,156.17
2019-02-20T06:50:47.904Z,150.83
2019-02-20T06:53:18.988Z,146.93
2019-02-20T06:55:51.090Z,148.43
2019-02-20T06:58:22.340Z,142.03
2019-02-20T07:00:53.460Z,144.97
2019-02-20T07:03:25.058Z,147.27
2019-02-20T07:06:41.827Z,136.63
2019-02-20T07:10:38.964Z,147.17
2019-02-20T07:13:46.280Z,130.50
2019-02-20T07:17:17.728Z,128.90
2019-02-20T07:20:37.581Z,128.87
2019-02-20T07:23:24.189Z,199.63
2019-02-20T07:26:23.936Z,154.00
2019-02-20T07:29:45.696Z,145.57
2019-02-20T07:32:19.750Z,152.20
2019-02-20T07:34:51.319Z,148.93
2019-02-20T07:37:22.427Z,160.40
2019-02-20T07:39:53.613Z,157.40
2019-02-20T07:42:25.066Z,173.37
2019-02-20T07:44:56.530Z,179.67
2019-02-20T07:47:27.625Z,173.00
2019-02-20T07:50:03.515Z,183.80
2019-02-20T07:52:35.959Z,174.23
2019-02-20T07:55:13.322Z,175.47
2019-02-20T07:57:41.386Z,198.83
2019-02-20T08:00:15.539Z,184.53
2019-02-20T08:02:46.631Z,214.83
2019-02-20T08:05:19.595Z,215.50
2019-02-20T08:07:51.906Z,208.33
2019-02-20T08:10:24.345Z,238.20
2019-02-20T08:12:56.712Z,226.10
2019-02-20T08:15:27.884Z,237.77
2019-02-20T08:17:59.292Z,204.67
2019-02-20T08:20:31.766Z,231.93
2019-02-20T08:23:03.133Z,252.93
2019-02-20T08:25:35.226Z,267.80
2019-02-20T08:28:06.688Z,284.00
2019-02-20T08:30:38.255Z,306.60
2019-02-20T08:33:10.236Z,335.27
2019-02-20T08:35:41.403Z,247.70
2019-02-20T08:38:13.315Z,317.07
2019-02-20T08:40:45.302Z,309.23
2019-02-20T08:43:18.179Z,296.90
2019-02-20T08:45:49.607Z,307.17
2019-02-20T08:48:20.729Z,300.67
2019-02-20T08:50:52.607Z,317.20
2019-02-20T08:53:23.726Z,308.67
2019-02-20T08:55:54.835Z,317.83
2019-02-20T08:58:25.966Z,317.10
2019-02-20T09:00:57.507Z,319.63
2019-02-20T09:03:30.097Z,304.70
2019-02-20T09:06:01.215Z,313.37
2019-02-20T09:08:32.862Z,308.00
2019-02-20T09:11:04.044Z,310.80
2019-02-20T09:13:36.525Z,345.33
2019-02-20T09:16:07.759Z,376.20
2019-02-20T09:18:39.005Z,381.97
2019-02-20T09:21:10.709Z,373.47
2019-02-20T09:23:41.980Z,339.87
2019-02-20T09:26:13.661Z,344.60
2019-02-20T09:28:45.317Z,314.90
2019-02-20T09:31:17.107Z,333.93
2019-02-20T09:33:49.007Z,351.50
2019-02-20T09:36:20.073Z,343.47
2019-02-20T09:38:51.304Z,430.83
2019-02-20T09:41:22.511Z,341.73
2019-02-20T09:43:53.869Z,348.90
2019-02-20T09:46:25.468Z,327.63
2019-02-20T09:48:57.508Z,358.50
2019-02-20T09:51:28.941Z,230.73
2019-02-20T09:54:00.211Z,220.37
2019-02-20T09:56:31.749Z,242.37
2019-02-20T09:59:03.621Z,267.37
2019-02-20T10:01:35.795Z,247.67
2019-02-20T10:04:08.222Z,248.83
2019-02-20T10:06:39.359Z,264.73
2019-02-20T10:09:10.782Z,192.97
2019-02-20T10:11:41.840Z,136.90
2019-02-20T10:14:14.516Z,109.57
2019-02-20T10:16:45.616Z,107.37
2019-02-20T10:19:17.645Z,133.00
2019-02-20T10:21:49.787Z,118.90
2019-02-20T10:24:21.765Z,186.07
2019-02-20T10:27:00.378Z,127.90
2019-02-20T10:29:26.912Z,143.30
2019-02-20T10:32:00.534Z,114.70
2019-02-20T10:34:33.051Z,121.43
2019-02-20T10:37:04.199Z,119.83
2019-02-20T10:39:36.254Z,116.67
2019-02-20T10:42:07.673Z,141.07
2019-02-20T10:44:39.285Z,126.33
2019-02-20T10:47:10.424Z,146.03
2019-02-20T10:49:41.603Z,131.07
2019-02-20T10:52:15.174Z,136.33
2019-02-20T10:54:57.406Z,130.07
2019-02-20T10:57:21.591Z,144.77
2019-02-20T10:59:52.757Z,141.87
2019-02-20T11:02:23.823Z,144.23
2019-02-20T11:04:55.908Z,123.23
2019-02-20T11:07:27.065Z,127.53
2019-02-20T11:09:58.402Z,132.67
2019-02-20T11:12:29.900Z,124.47
2019-02-20T11:15:02.492Z,125.47
2019-02-20T11:17:33.981Z,141.87
2019-02-20T11:20:05.222Z,118.23
2019-02-20T11:22:36.844Z,125.93
2019-02-20T11:25:10.658Z,126.13
2019-02-20T11:27:44.270Z,128.13
2019-02-20T11:30:27.366Z,129.47
2019-02-20T11:32:59.399Z,134.20
2019-02-20T11:35:31.010Z,114.30
2019-02-20T11:38:03.457Z,120.90
2019-02-20T11:40:34.669Z,121.93
2019-02-20T11:43:06.285Z,153.50
2019-02-20T11:45:38.442Z,123.10
2019-02-20T11:48:11.093Z,127.67
2019-02-20T11:50:42.288Z,129.77
2019-02-20T11:53:13.789Z,126.33
2019-02-20T11:55:49.272Z,120.63
2019-02-20T11:58:22.491Z,118.30
2019-02-20T12:00:53.834Z,122.63
2019-02-20T12:03:25.418Z,132.37
2019-02-20T12:05:57.306Z,110.77
2019-02-20T12:08:28.787Z,116.07
2019-02-20T12:11:01.310Z,128.60
2019-02-20T12:13:32.826Z,126.93
2019-02-20T12:16:04.545Z,134.63
2019-02-20T12:18:36.111Z,112.43
2019-02-20T12:21:07.865Z,112.93
2019-02-20T12:23:39.062Z,109.07
2019-02-20T12:26:11.357Z,132.17
2019-02-20T12:28:43.125Z,176.10
2019-02-20T12:31:14.632Z,121.97
2019-02-20T12:33:45.776Z,121.10
2019-02-20T12:36:17.002Z,125.33
2019-02-20T12:38:49.334Z,127.03
2019-02-20T12:41:21.048Z,115.00
2019-02-20T12:43:53.016Z,235.00
2019-02-20T12:46:24.862Z,117.23
2019-02-20T12:48:56.387Z,113.17
2019-02-20T12:51:28.279Z,103.30
2019-02-20T12:53:59.901Z,116.10
2019-02-20T12:56:33.004Z,108.57
2019-02-20T12:59:07.782Z,102.73
2019-02-20T13:01:40.186Z,104.83
2019-02-20T13:04:12.560Z,101.80
2019-02-20T13:06:44.640Z,94.40
2019-02-20T13:09:17.928Z,98.60
2019-02-20T13:11:49.718Z,107.43
2019-02-20T13:14:20.778Z,99.90
2019-02-20T13:16:51.924Z,105.93
2019-02-20T13:19:23.322Z,77.17
2019-02-20T13:21:55.569Z,82.83
2019-02-20T13:24:27.767Z,82.03
2019-02-20T13:26:59.463Z,70.77
2019-02-20T13:29:34.205Z,53.00
2019-02-20T13:32:05.673Z,73.90
2019-02-20T13:34:38.184Z,71.43
2019-02-20T13:37:09.894Z,57.57
2019-02-20T13:39:40.913Z,63.30
2019-02-20T13:42:12.061Z,36.60
2019-02-20T13:44:44.171Z,29.30
2019-02-20T13:48:11.205Z,42.63
2019-02-20T13:50:43.145Z,22.53
2019-02-20T13:53:14.768Z,26.20
2019-02-20T13:55:46.768Z,24.27
2019-02-20T13:58:17.936Z,24.00
2019-02-20T14:00:50.010Z,51.33
2019-02-20T14:03:21.410Z,44.30
2019-02-20T14:05:52.891Z,39.33
2019-02-20T14:08:24.775Z,74.07
2019-02-20T14:10:56.250Z,43.63
2019-02-20T14:13:28.322Z,33.37
2019-02-20T14:15:59.452Z,93.33
2019-02-20T14:18:31.327Z,34.57
2019-02-20T14:21:02.810Z,27.23
2019-02-20T14:23:34.590Z,30.10
2019-02-20T14:26:05.713Z,41.37
2019-02-20T14:28:38.024Z,66.90
2019-02-20T14:31:10.545Z,61.57
2019-02-20T14:33:42.107Z,43.13
2019-02-20T14:36:13.781Z,52.90
2019-02-20T14:38:45.217Z,42.70
2019-02-20T14:41:16.337Z,46.80
2019-02-20T14:43:47.781Z,50.07
2019-02-20T14:46:19.232Z,70.83
2019-02-20T14:48:50.930Z,74.17
2019-02-20T14:51:22.047Z,72.47
2019-02-20T14:53:54.367Z,65.33
2019-02-20T14:56:25.514Z,55.00
2019-02-20T14:58:57.526Z,53.83
2019-02-20T15:01:29.650Z,62.63
2019-02-20T15:04:01.129Z,64.43
2019-02-20T15:06:32.449Z,45.43
2019-02-20T15:09:04.664Z,56.37
2019-02-20T15:11:35.789Z,64.13
2019-02-20T15:14:08.698Z,62.07
2019-02-20T15:16:39.888Z,73.73
2019-02-20T15:19:11.812Z,67.97
2019-02-20T15:21:43.491Z,93.13
2019-02-20T15:24:15.514Z,78.60
2019-02-20T15:26:47.351Z,77.10
2019-02-20T15:29:18.776Z,89.97
2019-02-20T15:31:50.315Z,96.33
2019-02-20T15:34:22.518Z,99.97
2019-02-20T15:36:54.135Z,122.23
2019-02-20T15:39:25.962Z,123.50
2019-02-20T15:41:57.080Z,119.83
2019-02-20T15:44:28.847Z,135.73
2019-02-20T15:47:00.048Z,153.60
2019-02-20T15:49:31.331Z,148.23
2019-02-20T15:52:02.462Z,144.53
2019-02-20T15:54:35.099Z,151.57
2019-02-20T15:57:06.796Z,148.23
2019-02-20T15:59:39.672Z,154.57
2019-02-20T16:02:11.756Z,141.20
2019-02-20T16:04:44.058Z,141.43
2019-02-20T16:07:15.271Z,108.93
2019-02-20T16:09:46.553Z,122.57
2019-02-20T16:12:18.300Z,99.10
2019-02-20T16:14:50.091Z,115.00
2019-02-20T16:17:22.677Z,102.97
2019-02-20T16:19:54.700Z,119.53
2019-02-20T16:22:26.057Z,65.70
2019-02-20T16:24:58.455Z,64.73
2019-02-20T16:27:30.627Z,58.97
2019-02-20T16:30:02.327Z,68.97
2019-02-20T16:32:33.671Z,71.23
2019-02-20T16:35:07.701Z,77.83
2019-02-20T16:37:39.039Z,79.87
2019-02-20T16:40:12.963Z,70.73
2019-02-20T16:42:47.279Z,80.30
2019-02-20T16:45:24.490Z,92.43
2019-02-20T16:47:56.514Z,99.47
2019-02-20T16:50:28.017Z,94.70
2019-02-20T16:52:59.326Z,97.80
2019-02-20T16:55:30.509Z,96.17
2019-02-20T16:58:01.612Z,92.10
2019-02-20T17:00:32.888Z,304.30
2019-02-20T17:03:04.246Z,283.37
2019-02-20T17:05:35.960Z,280.93
2019-02-20T17:08:07.193Z,275.00
2019-02-20T17:10:38.856Z,301.90
2019-02-20T17:13:10.927Z,318.33
2019-02-20T17:15:42.924Z,431.93
2019-02-20T17:18:14.898Z,302.93
2019-02-20T17:20:46.913Z,332.47
2019-02-20T17:23:19.303Z,355.50
2019-02-20T17:25:50.791Z,343.77
2019-02-20T17:28:22.516Z,325.77
2019-02-20T17:30:53.811Z,298.80
2019-02-20T17:33:25.172Z,311.63
2019-02-20T17:35:59.073Z,323.13
2019-02-20T17:38:31.084Z,306.73
2019-02-20T17:41:04.245Z,334.00
2019-02-20T17:43:35.632Z,332.57
2019-02-20T17:46:07.512Z,290.90
2019-02-20T17:48:39.072Z,314.37
2019-02-20T17:51:10.260Z,318.17
2019-02-20T17:53:41.378Z,310.37
2019-02-20T17:56:12.725Z,274.90
2019-02-20T17:58:43.822Z,240.57
2019-02-20T18:01:18.314Z,287.67
2019-02-20T18:03:50.373Z,277.37
2019-02-20T18:06:21.814Z,261.30
2019-02-20T18:08:52.854Z,209.60
2019-02-20T18:11:24.988Z,265.57
2019-02-20T18:13:56.687Z,192.03
2019-02-20T18:16:28.415Z,168.07
2019-02-20T18:18:59.618Z,152.63
2019-02-20T18:21:31.249Z,188.17
2019-02-20T18:24:02.377Z,101.07
2019-02-20T18:26:34.056Z,180.83
2019-02-20T18:29:06.431Z,123.33
2019-02-20T18:31:38.427Z,74.80
2019-02-20T18:34:10.455Z,155.53
2019-02-20T18:36:41.990Z,93.33
2019-02-20T18:39:13.266Z,104.63
2019-02-20T18:41:44.430Z,86.93
2019-02-20T18:44:15.641Z,97.50
2019-02-20T18:46:47.398Z,82.40
2019-02-20T18:49:21.058Z,161.30
2019-02-20T18:51:51.671Z,144.07
2019-02-20T18:54:22.822Z,105.53
2019-02-20T18:56:54.545Z,110.67
2019-02-20T18:59:25.757Z,104.23
2019-02-20T19:01:57.544Z,163.00
2019-02-20T19:04:28.874Z,118.43
2019-02-20T19:07:00.304Z,135.33
2019-02-20T19:09:32.276Z,124.73
2019-02-20T19:12:47.711Z,126.90
2019-02-20T19:16:03.136Z,110.27
2019-02-20T19:19:46.330Z,105.20
2019-02-20T19:23:39.851Z,115.47
2019-02-20T19:27:03.821Z,105.30
2019-02-20T19:30:44.885Z,110.67
2019-02-20T19:34:05.525Z,86.73
2019-02-20T19:37:34.464Z,82.00
2019-02-20T19:41:00.259Z,87.13
2019-02-20T19:43:56.757Z,80.27
2019-02-20T19:47:12.218Z,82.00
2019-02-20T19:50:30.835Z,98.30
2019-02-20T19:53:26.961Z,97.30
2019-02-20T19:56:36.125Z,104.73
2019-02-20T20:00:00.773Z,95.67
2019-02-20T20:03:16.680Z,82.00
2019-02-20T20:06:18.951Z,98.30
2019-02-20T20:10:07.892Z,73.47
2019-02-20T20:13:50.983Z,84.30
2019-02-20T20:17:11.381Z,79.80
2019-02-20T20:20:28.592Z,67.43
2019-02-20T20:24:23.135Z,72.20
2019-02-20T20:27:53.789Z,47.40
2019-02-20T20:31:25.974Z,59.20
2019-02-20T20:34:49.727Z,56.73
2019-02-20T20:38:01.668Z,61.43
2019-02-20T20:41:26.459Z,53.67
2019-02-20T20:44:54.573Z,56.33
2019-02-20T20:48:12.159Z,57.10
2019-02-20T20:51:24.581Z,80.33
2019-02-20T20:54:27.487Z,69.83
2019-02-20T20:57:29.408Z,77.07
2019-02-20T21:00:52.369Z,74.10
2019-02-20T21:03:27.320Z,74.67
2019-02-20T21:07:04.128Z,78.30
2019-02-20T21:10:49.275Z,79.37
2019-02-20T21:14:38.949Z,81.17
2019-02-20T21:18:32.107Z,85.47
2019-02-20T21:21:54.444Z,100.23
2019-02-20T21:25:14.424Z,124.83
2019-02-20T21:29:01.679Z,94.30
2019-02-20T21:32:52.585Z,113.77
2019-02-20T21:36:43.132Z,118.07
2019-02-20T21:39:57.047Z,115.17
2019-02-20T21:43:04.501Z,186.20
2019-02-20T21:46:38.438Z,137.83
2019-02-20T21:49:48.435Z,146.47
2019-02-20T21:53:27.555Z,160.17
2019-02-20T21:56:25.243Z,165.90
2019-02-20T21:59:53.994Z,166.90
2019-02-20T22:03:22.164Z,88.63
2019-02-20T22:06:59.236Z,93.03
2019-02-20T22:10:44.974Z,101.27
2019-02-20T22:14:09.923Z,89.53
2019-02-20T22:17:18.693Z,119.80
2019-02-20T22:20:41.733Z,118.97
2019-02-20T22:23:55.641Z,110.73
2019-02-20T22:27:22.509Z,123.57
2019-02-20T22:30:50.262Z,116.77
2019-02-20T22:34:18.575Z,103.80
2019-02-20T22:38:16.617Z,100.70
2019-02-20T22:41:35.895Z,94.10
2019-02-20T22:45:34.282Z,97.23
2019-02-20T22:48:53.518Z,157.77
2019-02-20T22:52:32.902Z,170.83
2019-02-20T22:56:07.641Z,178.03
2019-02-20T22:59:37.241Z,169.43
2019-02-20T23:02:52.594Z,165.77
2019-02-20T23:06:29.602Z,185.37
2019-02-20T23:10:12.397Z,179.77
2019-02-20T23:14:02.673Z,195.03
2019-02-20T23:16:33.925Z,200.87
2019-02-20T23:19:06.668Z,246.83
2019-02-20T23:21:38.435Z,245.47
2019-02-20T23:24:09.475Z,248.07
2019-02-20T23:26:42.399Z,238.47
2019-02-20T23:29:13.511Z,303.80
2019-02-20T23:31:46.012Z,242.63
2019-02-20T23:34:17.238Z,227.20
2019-02-20T23:36:50.017Z,240.50
2019-02-20T23:39:25.670Z,246.97
2019-02-20T23:41:53.951Z,261.07
2019-02-20T23:44:25.065Z,301.37
2019-02-20T23:46:56.562Z,216.97
2019-02-20T23:49:28.211Z,214.23
2019-02-20T23:51:59.583Z,237.00
2019-02-20T23:54:30.729Z,237.87
2019-02-20T23:57:03.319Z,258.70
2019-02-20T23:59:34.364Z,269.63
